マニラ/ニノイ・アキノ の空港の天気 - METARとTAF

ニノイ・アキノ国際空港 ( RPLL / MNL ) - フィリピン マニラ
飛行場実況気象(Metar)
観測時間06/29 09:00 PHT (06/29 01:00 UTC)
風向・風速東南東 2m/s
視程10km以上
天気現象
少しの雲 雲底高度 700m
全天の4割程度の雲 雲底高度 3050m
気温29℃
湿度84%
気圧1010hPa
METARRPLL 290100Z 12003KT 070V170 9999 FEW023 SCT100 29/26 Q1010 NOSIG RMK A2983
過去の天気等 Google飛行場航空写真 Wunderground天気予報

過去48時間のMETAR

飛行場予報(TAF)
発表時間: 6/29 07:00 PHT (6/28 23:00 UTC)
予報対象時間: 29日8時 PHT ~ 30日14時 PHT
風向・風速南南東 3m/s
視程10km以上
少しの雲 雲底高度 760m
全天の4割程度の雲 雲底高度 3,050m
29日8時 PHT ~ 29日14時 PHT に一時的に
風向・風速不定 2m/s
少しの雲 雲底高度 700m
全天の8割程度の雲 雲底高度 3,050m
29日14時 PHT ~ 29日20時 PHT に一時的に
風向・風速南 4m/s
視程9,000m
天気現象雷 弱いしゅう雨
少しの積乱雲 雲底高度 670m
全天の4割程度の雲 雲底高度 700m
全天の8割程度の雲 雲底高度 3,050m
TAF RPLL 282300Z 2900/3006 15006KT 9999 FEW025 SCT100 TX32/2906Z TN26/2921Z
TEMPO 2900/2906 VRB03KT FEW023 BKN100
TEMPO 2906/2912 19007KT 9000 TS -SHRA FEW022CB SCT023 BKN100